This is the latest recevied weather packets stored in our database for station/object KC5TIL. If no packets are shown the sender has not sent any weather packets the latest 10 day(s).
| Time | Temp. | Humidity | Pressure | Rain* | Wind** | Luminosity | Snow |
|---|---|---|---|---|---|---|---|
| 1777915280 | 26.11° C | 58% | 1012.3 hPa | 0 mm | - | 763 W/m² | - |
| 1777914976 | 25.56° C | 61% | 1012.4 hPa | 0 mm | - | 778 W/m² | - |
| 1777914674 | 25.56° C | 60% | 1012.7 hPa | 0 mm | - | 785 W/m² | - |
| 1777914369 | 25° C | 61% | 1012.5 hPa | 0 mm | - | 781 W/m² | - |
| 1777914067 | 25° C | 60% | 1012.8 hPa | 0 mm | - | 790 W/m² | - |
| 1777913763 | 25° C | 59% | 1012.9 hPa | 0 mm | - | 822 W/m² | - |
| 1777913459 | 25° C | 60% | 1013.1 hPa | 0 mm | - | 796 W/m² | - |
| 1777913156 | 25° C | 59% | 1013.2 hPa | 0 mm | - | 753 W/m² | - |
| 1777912852 | 25° C | 59% | 1013.4 hPa | 0 mm | - | 741 W/m² | - |
| 1777912549 | 25° C | 60% | 1013.4 hPa | 0 mm | - | 782 W/m² | - |
| 1777912245 | 25° C | 60% | 1013.1 hPa | 0 mm | - | 829 W/m² | - |
| 1777911942 | 24.44° C | 60% | 1013.3 hPa | 0 mm | - | 862 W/m² | - |
| 1777911638 | 24.44° C | 60% | 1013.4 hPa | 0 mm | - | 871 W/m² | - |
| 1777911334 | 24.44° C | 59% | 1013.5 hPa | 0 mm | - | 871 W/m² | - |
| 1777911032 | 25° C | 58% | 1013.5 hPa | 0 mm | - | 874 W/m² | - |
| 1777910729 | 24.44° C | 59% | 1013.5 hPa | 0 mm | - | 835 W/m² | - |
| 1777910426 | 24.44° C | 59% | 1013.5 hPa | 0 mm | - | 844 W/m² | - |
| 1777910122 | 23.89° C | 60% | 1013.5 hPa | 0 mm | - | 825 W/m² | - |
| 1777909820 | 23.89° C | 60% | 1013.5 hPa | 0 mm | - | 799 W/m² | - |
| 1777909516 | 23.33° C | 60% | 1013.6 hPa | 0 mm | - | 558 W/m² | - |
| 1777909214 | 23.89° C | 60% | 1013.6 hPa | 0 mm | - | 769 W/m² | - |
| 1777908912 | 23.89° C | 61% | 1013.9 hPa | 0 mm | - | 730 W/m² | - |
| 1777908610 | 22.78° C | 62% | 1013.9 hPa | 0 mm | - | 653 W/m² | - |
| 1777908306 | 23.33° C | 61% | 1014.1 hPa | 0 mm | - | 699 W/m² | - |
| 1777908002 | 23.33° C | 61% | 1014.2 hPa | 0 mm | - | 624 W/m² | - |
* Rain latest hour (hover to see other rain measurements)
** Current wind speed in m/s (hover to see current wind gust speed)